sensor_id;sensor_type;location;lat;lon;timestamp;temperature;humidity
20481;DHT22;10399;50.754;3.366;2023-02-04T00:00:01;12.00;99.90
20481;DHT22;10399;50.754;3.366;2023-02-04T00:02:28;12.00;99.90
20481;DHT22;10399;50.754;3.366;2023-02-04T00:04:55;12.00;99.90
20481;DHT22;10399;50.754;3.366;2023-02-04T00:07:22;12.10;99.90
20481;DHT22;10399;50.754;3.366;2023-02-04T00:09:50;12.00;99.90
20481;DHT22;10399;50.754;3.366;2023-02-04T00:12:16;12.10;99.90
20481;DHT22;10399;50.754;3.366;2023-02-04T00:14:43;12.20;99.90
20481;DHT22;10399;50.754;3.366;2023-02-04T00:17:10;12.20;99.90
20481;DHT22;10399;50.754;3.366;2023-02-04T00:19:41;12.10;99.90
20481;DHT22;10399;50.754;3.366;2023-02-04T00:22:08;12.10;99.90
20481;DHT22;10399;50.754;3.366;2023-02-04T00:24:36;12.10;99.90
20481;DHT22;10399;50.754;3.366;2023-02-04T00:27:04;12.10;99.90
20481;DHT22;10399;50.754;3.366;2023-02-04T00:29:31;12.20;99.90
20481;DHT22;10399;50.754;3.366;2023-02-04T00:31:58;12.30;99.90
20481;DHT22;10399;50.754;3.366;2023-02-04T00:34:25;12.40;99.90
20481;DHT22;10399;50.754;3.366;2023-02-04T00:36:53;12.30;99.90
20481;DHT22;10399;50.754;3.366;2023-02-04T00:39:20;12.30;99.90
20481;DHT22;10399;50.754;3.366;2023-02-04T00:41:47;12.30;99.90
20481;DHT22;10399;50.754;3.366;2023-02-04T00:44:14;12.20;99.90
20481;DHT22;10399;50.754;3.366;2023-02-04T00:46:41;12.20;99.90
20481;DHT22;10399;50.754;3.366;2023-02-04T00:49:09;12.20;99.90
20481;DHT22;10399;50.754;3.366;2023-02-04T00:51:37;12.30;99.90
20481;DHT22;10399;50.754;3.366;2023-02-04T00:54:05;12.30;99.90
20481;DHT22;10399;50.754;3.366;2023-02-04T00:56:33;12.20;99.90
20481;DHT22;10399;50.754;3.366;2023-02-04T00:59:00;12.30;99.90
20481;DHT22;10399;50.754;3.366;2023-02-04T01:01:27;12.20;99.90
20481;DHT22;10399;50.754;3.366;2023-02-04T01:03:54;12.20;99.90
20481;DHT22;10399;50.754;3.366;2023-02-04T01:06:21;12.20;99.90
20481;DHT22;10399;50.754;3.366;2023-02-04T01:08:48;12.20;99.90
20481;DHT22;10399;50.754;3.366;2023-02-04T01:11:16;12.10;99.90
20481;DHT22;10399;50.754;3.366;2023-02-04T01:13:43;12.20;99.90
20481;DHT22;10399;50.754;3.366;2023-02-04T01:16:10;12.10;99.90
20481;DHT22;10399;50.754;3.366;2023-02-04T01:18:37;12.20;99.90
20481;DHT22;10399;50.754;3.366;2023-02-04T01:21:04;12.30;99.90
20481;DHT22;10399;50.754;3.366;2023-02-04T01:23:31;12.30;99.90
20481;DHT22;10399;50.754;3.366;2023-02-04T01:25:58;12.20;99.90
20481;DHT22;10399;50.754;3.366;2023-02-04T01:28:25;12.20;99.90
20481;DHT22;10399;50.754;3.366;2023-02-04T01:30:52;12.20;99.90
20481;DHT22;10399;50.754;3.366;2023-02-04T01:33:19;12.20;99.90
20481;DHT22;10399;50.754;3.366;2023-02-04T01:35:46;12.10;99.90
20481;DHT22;10399;50.754;3.366;2023-02-04T01:38:13;12.10;99.90
20481;DHT22;10399;50.754;3.366;2023-02-04T01:40:41;12.20;99.90
20481;DHT22;10399;50.754;3.366;2023-02-04T01:43:09;12.20;99.90
20481;DHT22;10399;50.754;3.366;2023-02-04T01:45:36;12.20;99.90
20481;DHT22;10399;50.754;3.366;2023-02-04T01:48:04;12.20;99.90
20481;DHT22;10399;50.754;3.366;2023-02-04T01:50:32;12.20;99.90
20481;DHT22;10399;50.754;3.366;2023-02-04T01:53:00;12.20;99.90
20481;DHT22;10399;50.754;3.366;2023-02-04T01:55:29;12.20;99.90
20481;DHT22;10399;50.754;3.366;2023-02-04T01:57:57;12.30;99.90
20481;DHT22;10399;50.754;3.366;2023-02-04T02:00:28;12.20;99.90
20481;DHT22;10399;50.754;3.366;2023-02-04T02:02:57;12.30;99.90
20481;DHT22;10399;50.754;3.366;2023-02-04T02:05:34;12.20;99.90
20481;DHT22;10399;50.754;3.366;2023-02-04T02:08:03;12.40;99.90
20481;DHT22;10399;50.754;3.366;2023-02-04T02:10:31;12.40;99.90
20481;DHT22;10399;50.754;3.366;2023-02-04T02:12:59;12.30;99.90
20481;DHT22;10399;50.754;3.366;2023-02-04T02:15:26;12.40;99.90
20481;DHT22;10399;50.754;3.366;2023-02-04T02:17:54;12.30;99.90
20481;DHT22;10399;50.754;3.366;2023-02-04T02:20:23;12.30;99.90
20481;DHT22;10399;50.754;3.366;2023-02-04T02:25:49;12.20;99.90
20481;DHT22;10399;50.754;3.366;2023-02-04T02:28:19;12.20;99.90
20481;DHT22;10399;50.754;3.366;2023-02-04T02:30:47;12.20;99.90
20481;DHT22;10399;50.754;3.366;2023-02-04T02:33:19;12.10;99.90
20481;DHT22;10399;50.754;3.366;2023-02-04T02:35:47;12.20;99.90
20481;DHT22;10399;50.754;3.366;2023-02-04T02:38:15;12.30;99.90
20481;DHT22;10399;50.754;3.366;2023-02-04T02:40:43;12.30;99.90
20481;DHT22;10399;50.754;3.366;2023-02-04T02:43:16;12.20;99.90
20481;DHT22;10399;50.754;3.366;2023-02-04T02:45:44;12.10;99.90
20481;DHT22;10399;50.754;3.366;2023-02-04T02:48:11;12.00;99.90
20481;DHT22;10399;50.754;3.366;2023-02-04T02:50:39;12.00;99.90
20481;DHT22;10399;50.754;3.366;2023-02-04T02:53:16;11.90;99.90
20481;DHT22;10399;50.754;3.366;2023-02-04T02:55:45;11.90;99.90
20481;DHT22;10399;50.754;3.366;2023-02-04T03:00:44;11.90;99.90
20481;DHT22;10399;50.754;3.366;2023-02-04T03:03:21;11.90;99.90
20481;DHT22;10399;50.754;3.366;2023-02-04T03:05:53;12.00;99.90
20481;DHT22;10399;50.754;3.366;2023-02-04T03:08:21;12.10;99.90
20481;DHT22;10399;50.754;3.366;2023-02-04T03:10:49;12.20;99.90
20481;DHT22;10399;50.754;3.366;2023-02-04T03:13:16;12.10;99.90
20481;DHT22;10399;50.754;3.366;2023-02-04T03:15:45;12.00;99.90
20481;DHT22;10399;50.754;3.366;2023-02-04T03:18:15;12.10;99.90
20481;DHT22;10399;50.754;3.366;2023-02-04T03:20:43;12.10;99.90
20481;DHT22;10399;50.754;3.366;2023-02-04T03:23:11;12.00;99.90
20481;DHT22;10399;50.754;3.366;2023-02-04T03:25:38;12.00;99.90
20481;DHT22;10399;50.754;3.366;2023-02-04T03:28:05;11.90;99.90
20481;DHT22;10399;50.754;3.366;2023-02-04T03:30:32;12.00;99.90
20481;DHT22;10399;50.754;3.366;2023-02-04T03:32:59;12.00;99.90
20481;DHT22;10399;50.754;3.366;2023-02-04T03:35:26;11.90;99.90
20481;DHT22;10399;50.754;3.366;2023-02-04T03:37:53;11.80;99.90
20481;DHT22;10399;50.754;3.366;2023-02-04T03:40:20;11.80;99.90
20481;DHT22;10399;50.754;3.366;2023-02-04T03:42:47;11.70;99.90
20481;DHT22;10399;50.754;3.366;2023-02-04T03:45:14;11.60;99.90
20481;DHT22;10399;50.754;3.366;2023-02-04T03:47:43;11.60;99.90
20481;DHT22;10399;50.754;3.366;2023-02-04T03:50:10;11.60;99.90
20481;DHT22;10399;50.754;3.366;2023-02-04T03:52:38;11.60;99.90
20481;DHT22;10399;50.754;3.366;2023-02-04T03:55:08;11.50;99.90
20481;DHT22;10399;50.754;3.366;2023-02-04T03:57:35;11.50;99.90
20481;DHT22;10399;50.754;3.366;2023-02-04T04:00:03;11.50;99.90
20481;DHT22;10399;50.754;3.366;2023-02-04T04:02:30;11.40;99.90
20481;DHT22;10399;50.754;3.366;2023-02-04T04:04:57;11.40;99.90
20481;DHT22;10399;50.754;3.366;2023-02-04T04:07:24;11.30;99.90
20481;DHT22;10399;50.754;3.366;2023-02-04T04:09:51;11.30;99.90
20481;DHT22;10399;50.754;3.366;2023-02-04T04:12:18;11.40;99.90
20481;DHT22;10399;50.754;3.366;2023-02-04T04:14:45;11.60;99.90
20481;DHT22;10399;50.754;3.366;2023-02-04T04:17:12;11.40;99.90
20481;DHT22;10399;50.754;3.366;2023-02-04T04:19:39;11.50;99.90
20481;DHT22;10399;50.754;3.366;2023-02-04T04:22:06;11.70;99.90
20481;DHT22;10399;50.754;3.366;2023-02-04T04:24:33;11.70;99.90
20481;DHT22;10399;50.754;3.366;2023-02-04T04:26:59;11.80;99.90
20481;DHT22;10399;50.754;3.366;2023-02-04T04:29:26;11.70;99.90
20481;DHT22;10399;50.754;3.366;2023-02-04T04:31:54;11.70;99.90
20481;DHT22;10399;50.754;3.366;2023-02-04T04:34:21;11.60;99.90
20481;DHT22;10399;50.754;3.366;2023-02-04T04:36:48;11.70;99.90
20481;DHT22;10399;50.754;3.366;2023-02-04T04:39:15;11.60;99.90
20481;DHT22;10399;50.754;3.366;2023-02-04T04:41:42;11.80;99.90
20481;DHT22;10399;50.754;3.366;2023-02-04T04:44:09;11.70;99.90
20481;DHT22;10399;50.754;3.366;2023-02-04T04:46:36;11.50;99.90
20481;DHT22;10399;50.754;3.366;2023-02-04T04:49:03;11.60;99.90
20481;DHT22;10399;50.754;3.366;2023-02-04T04:51:31;11.50;99.90
20481;DHT22;10399;50.754;3.366;2023-02-04T04:53:58;11.60;99.90
20481;DHT22;10399;50.754;3.366;2023-02-04T04:56:25;11.70;99.90
20481;DHT22;10399;50.754;3.366;2023-02-04T04:58:52;11.70;99.90
20481;DHT22;10399;50.754;3.366;2023-02-04T05:01:19;11.50;99.90
20481;DHT22;10399;50.754;3.366;2023-02-04T05:03:48;11.60;99.90
20481;DHT22;10399;50.754;3.366;2023-02-04T05:06:15;11.50;99.90
20481;DHT22;10399;50.754;3.366;2023-02-04T05:08:42;11.50;99.90
20481;DHT22;10399;50.754;3.366;2023-02-04T05:11:09;11.40;99.90
20481;DHT22;10399;50.754;3.366;2023-02-04T05:13:36;11.40;99.90
20481;DHT22;10399;50.754;3.366;2023-02-04T05:16:03;11.40;99.90
20481;DHT22;10399;50.754;3.366;2023-02-04T05:18:30;11.30;99.90
20481;DHT22;10399;50.754;3.366;2023-02-04T05:20:57;11.20;99.90
20481;DHT22;10399;50.754;3.366;2023-02-04T05:23:24;11.20;99.90
20481;DHT22;10399;50.754;3.366;2023-02-04T05:25:50;11.20;99.90
20481;DHT22;10399;50.754;3.366;2023-02-04T05:28:17;11.20;99.90
20481;DHT22;10399;50.754;3.366;2023-02-04T05:30:44;11.20;99.90
20481;DHT22;10399;50.754;3.366;2023-02-04T05:33:11;11.20;99.90
20481;DHT22;10399;50.754;3.366;2023-02-04T05:35:38;11.10;99.90
20481;DHT22;10399;50.754;3.366;2023-02-04T05:38:05;11.10;99.90
20481;DHT22;10399;50.754;3.366;2023-02-04T05:40:32;11.20;99.90
20481;DHT22;10399;50.754;3.366;2023-02-04T05:42:59;11.20;99.90
20481;DHT22;10399;50.754;3.366;2023-02-04T05:45:26;11.20;99.90
20481;DHT22;10399;50.754;3.366;2023-02-04T05:47:53;11.20;99.90
20481;DHT22;10399;50.754;3.366;2023-02-04T05:50:20;11.10;99.90
20481;DHT22;10399;50.754;3.366;2023-02-04T05:52:47;11.20;99.90
20481;DHT22;10399;50.754;3.366;2023-02-04T05:55:14;11.20;99.90
20481;DHT22;10399;50.754;3.366;2023-02-04T05:57:41;11.10;99.90
20481;DHT22;10399;50.754;3.366;2023-02-04T06:00:10;11.20;99.90
20481;DHT22;10399;50.754;3.366;2023-02-04T06:02:40;11.10;99.90
20481;DHT22;10399;50.754;3.366;2023-02-04T06:05:07;11.10;99.90
20481;DHT22;10399;50.754;3.366;2023-02-04T06:07:34;11.00;99.90
20481;DHT22;10399;50.754;3.366;2023-02-04T06:10:02;11.10;99.90
20481;DHT22;10399;50.754;3.366;2023-02-04T06:12:29;11.00;99.90
20481;DHT22;10399;50.754;3.366;2023-02-04T06:14:56;10.90;99.90
20481;DHT22;10399;50.754;3.366;2023-02-04T06:17:23;10.90;99.90
20481;DHT22;10399;50.754;3.366;2023-02-04T06:19:50;10.70;99.90
20481;DHT22;10399;50.754;3.366;2023-02-04T06:22:17;10.70;99.90
20481;DHT22;10399;50.754;3.366;2023-02-04T06:24:44;10.70;99.90
20481;DHT22;10399;50.754;3.366;2023-02-04T06:27:13;10.70;99.90
20481;DHT22;10399;50.754;3.366;2023-02-04T06:29:40;10.70;99.90
20481;DHT22;10399;50.754;3.366;2023-02-04T06:32:07;10.70;99.90
20481;DHT22;10399;50.754;3.366;2023-02-04T06:34:34;10.60;99.90
20481;DHT22;10399;50.754;3.366;2023-02-04T06:37:01;10.50;99.90
20481;DHT22;10399;50.754;3.366;2023-02-04T06:39:28;10.60;99.90
20481;DHT22;10399;50.754;3.366;2023-02-04T06:41:55;10.50;99.90
20481;DHT22;10399;50.754;3.366;2023-02-04T06:44:22;10.50;99.90
20481;DHT22;10399;50.754;3.366;2023-02-04T06:46:49;10.50;99.90
20481;DHT22;10399;50.754;3.366;2023-02-04T06:49:16;10.50;99.90
20481;DHT22;10399;50.754;3.366;2023-02-04T06:51:43;10.40;99.90
20481;DHT22;10399;50.754;3.366;2023-02-04T06:54:13;10.40;99.90
20481;DHT22;10399;50.754;3.366;2023-02-04T06:56:40;10.40;99.90
20481;DHT22;10399;50.754;3.366;2023-02-04T06:59:15;10.50;99.90
20481;DHT22;10399;50.754;3.366;2023-02-04T07:05:18;10.50;99.90
20481;DHT22;10399;50.754;3.366;2023-02-04T07:08:08;10.70;99.90
20481;DHT22;10399;50.754;3.366;2023-02-04T07:13:57;10.70;99.90
20481;DHT22;10399;50.754;3.366;2023-02-04T07:16:54;10.60;99.90
20481;DHT22;10399;50.754;3.366;2023-02-04T07:19:24;10.60;99.90
20481;DHT22;10399;50.754;3.366;2023-02-04T07:21:51;10.50;99.90
20481;DHT22;10399;50.754;3.366;2023-02-04T07:24:23;10.50;99.90
20481;DHT22;10399;50.754;3.366;2023-02-04T07:26:50;10.50;99.90
20481;DHT22;10399;50.754;3.366;2023-02-04T07:29:17;10.50;99.90
20481;DHT22;10399;50.754;3.366;2023-02-04T07:31:52;10.50;99.90
20481;DHT22;10399;50.754;3.366;2023-02-04T07:34:19;10.50;99.90
20481;DHT22;10399;50.754;3.366;2023-02-04T07:36:46;10.50;99.90
20481;DHT22;10399;50.754;3.366;2023-02-04T07:39:13;10.50;99.90
20481;DHT22;10399;50.754;3.366;2023-02-04T07:41:40;10.50;99.90
20481;DHT22;10399;50.754;3.366;2023-02-04T07:44:08;10.60;99.90
20481;DHT22;10399;50.754;3.366;2023-02-04T07:46:35;10.70;99.90
20481;DHT22;10399;50.754;3.366;2023-02-04T07:49:03;10.60;99.90
20481;DHT22;10399;50.754;3.366;2023-02-04T07:51:30;10.70;99.90
20481;DHT22;10399;50.754;3.366;2023-02-04T07:53:57;10.70;99.90
20481;DHT22;10399;50.754;3.366;2023-02-04T07:56:24;10.70;99.90
20481;DHT22;10399;50.754;3.366;2023-02-04T07:58:51;10.70;99.90
20481;DHT22;10399;50.754;3.366;2023-02-04T08:01:19;10.80;99.90
20481;DHT22;10399;50.754;3.366;2023-02-04T08:03:46;10.80;99.90
20481;DHT22;10399;50.754;3.366;2023-02-04T08:06:13;10.90;99.90
20481;DHT22;10399;50.754;3.366;2023-02-04T08:08:39;10.90;99.90
20481;DHT22;10399;50.754;3.366;2023-02-04T08:11:06;10.90;99.90
20481;DHT22;10399;50.754;3.366;2023-02-04T08:13:33;10.70;99.90
20481;DHT22;10399;50.754;3.366;2023-02-04T08:16:00;10.80;99.90
20481;DHT22;10399;50.754;3.366;2023-02-04T08:18:28;10.90;99.90
20481;DHT22;10399;50.754;3.366;2023-02-04T08:20:55;10.90;99.90
20481;DHT22;10399;50.754;3.366;2023-02-04T08:23:22;10.90;99.90
20481;DHT22;10399;50.754;3.366;2023-02-04T08:25:49;10.90;99.90
20481;DHT22;10399;50.754;3.366;2023-02-04T08:28:16;11.10;99.90
20481;DHT22;10399;50.754;3.366;2023-02-04T08:30:43;11.10;99.90
20481;DHT22;10399;50.754;3.366;2023-02-04T08:33:11;11.10;99.90
20481;DHT22;10399;50.754;3.366;2023-02-04T08:35:38;11.10;99.90
20481;DHT22;10399;50.754;3.366;2023-02-04T08:38:08;11.10;99.90
20481;DHT22;10399;50.754;3.366;2023-02-04T08:40:35;11.20;99.90
20481;DHT22;10399;50.754;3.366;2023-02-04T08:43:02;11.30;99.90
20481;DHT22;10399;50.754;3.366;2023-02-04T08:45:31;11.40;99.90
20481;DHT22;10399;50.754;3.366;2023-02-04T08:47:58;11.40;99.90
20481;DHT22;10399;50.754;3.366;2023-02-04T08:50:25;11.50;99.90
20481;DHT22;10399;50.754;3.366;2023-02-04T08:52:54;11.60;99.90
20481;DHT22;10399;50.754;3.366;2023-02-04T08:55:21;11.80;99.90
20481;DHT22;10399;50.754;3.366;2023-02-04T08:57:57;12.10;99.90
20481;DHT22;10399;50.754;3.366;2023-02-04T09:00:25;12.30;99.90
20481;DHT22;10399;50.754;3.366;2023-02-04T09:02:52;12.20;99.90
20481;DHT22;10399;50.754;3.366;2023-02-04T09:05:19;12.20;99.90
20481;DHT22;10399;50.754;3.366;2023-02-04T09:07:46;12.30;99.90
20481;DHT22;10399;50.754;3.366;2023-02-04T09:10:14;12.30;99.90
20481;DHT22;10399;50.754;3.366;2023-02-04T09:12:43;12.30;99.90
20481;DHT22;10399;50.754;3.366;2023-02-04T09:15:11;12.40;99.90
20481;DHT22;10399;50.754;3.366;2023-02-04T09:17:38;12.50;99.90
20481;DHT22;10399;50.754;3.366;2023-02-04T09:20:05;12.60;99.90
20481;DHT22;10399;50.754;3.366;2023-02-04T09:22:32;12.70;99.90
20481;DHT22;10399;50.754;3.366;2023-02-04T09:25:00;12.60;99.90
20481;DHT22;10399;50.754;3.366;2023-02-04T09:27:29;12.70;99.90
20481;DHT22;10399;50.754;3.366;2023-02-04T09:29:56;12.70;99.90
20481;DHT22;10399;50.754;3.366;2023-02-04T09:32:23;12.70;99.90
20481;DHT22;10399;50.754;3.366;2023-02-04T09:34:51;12.70;99.90
20481;DHT22;10399;50.754;3.366;2023-02-04T09:37:22;12.70;99.90
20481;DHT22;10399;50.754;3.366;2023-02-04T09:39:50;12.70;99.90
20481;DHT22;10399;50.754;3.366;2023-02-04T09:42:17;12.80;99.90
20481;DHT22;10399;50.754;3.366;2023-02-04T09:44:45;12.70;99.90
20481;DHT22;10399;50.754;3.366;2023-02-04T09:47:14;12.80;99.90
20481;DHT22;10399;50.754;3.366;2023-02-04T09:49:43;12.80;99.90
20481;DHT22;10399;50.754;3.366;2023-02-04T09:52:14;12.80;99.90
20481;DHT22;10399;50.754;3.366;2023-02-04T09:54:42;12.90;99.90
20481;DHT22;10399;50.754;3.366;2023-02-04T09:57:28;12.90;99.90
20481;DHT22;10399;50.754;3.366;2023-02-04T09:59:55;12.70;99.90
20481;DHT22;10399;50.754;3.366;2023-02-04T10:02:25;12.70;99.90
20481;DHT22;10399;50.754;3.366;2023-02-04T10:04:56;12.70;99.90
20481;DHT22;10399;50.754;3.366;2023-02-04T10:07:32;12.80;99.90
20481;DHT22;10399;50.754;3.366;2023-02-04T10:10:00;12.70;99.90
20481;DHT22;10399;50.754;3.366;2023-02-04T10:12:28;12.70;99.90
20481;DHT22;10399;50.754;3.366;2023-02-04T10:14:55;12.80;99.90
20481;DHT22;10399;50.754;3.366;2023-02-04T10:17:22;12.90;99.90
20481;DHT22;10399;50.754;3.366;2023-02-04T10:19:50;13.00;99.90
20481;DHT22;10399;50.754;3.366;2023-02-04T10:22:19;12.90;99.90
20481;DHT22;10399;50.754;3.366;2023-02-04T10:24:47;12.90;99.90
20481;DHT22;10399;50.754;3.366;2023-02-04T10:27:14;13.00;99.90
20481;DHT22;10399;50.754;3.366;2023-02-04T10:29:42;13.10;99.90
20481;DHT22;10399;50.754;3.366;2023-02-04T10:32:28;13.00;99.90
20481;DHT22;10399;50.754;3.366;2023-02-04T10:35:00;13.10;99.90
20481;DHT22;10399;50.754;3.366;2023-02-04T10:37:33;13.10;99.90
20481;DHT22;10399;50.754;3.366;2023-02-04T10:40:00;13.10;99.90
20481;DHT22;10399;50.754;3.366;2023-02-04T10:42:29;13.10;99.90
20481;DHT22;10399;50.754;3.366;2023-02-04T10:44:57;13.10;99.90
20481;DHT22;10399;50.754;3.366;2023-02-04T10:47:28;13.10;99.90
20481;DHT22;10399;50.754;3.366;2023-02-04T10:50:14;13.20;99.90
20481;DHT22;10399;50.754;3.366;2023-02-04T10:52:46;13.20;99.90
20481;DHT22;10399;50.754;3.366;2023-02-04T10:55:21;13.20;99.90
20481;DHT22;10399;50.754;3.366;2023-02-04T10:57:50;13.10;99.90
20481;DHT22;10399;50.754;3.366;2023-02-04T11:00:23;13.10;99.90
20481;DHT22;10399;50.754;3.366;2023-02-04T11:03:08;13.20;99.90
20481;DHT22;10399;50.754;3.366;2023-02-04T11:05:39;13.30;99.90
20481;DHT22;10399;50.754;3.366;2023-02-04T11:08:28;13.30;99.90
20481;DHT22;10399;50.754;3.366;2023-02-04T11:11:05;13.30;99.90
20481;DHT22;10399;50.754;3.366;2023-02-04T11:14:01;13.40;99.90
20481;DHT22;10399;50.754;3.366;2023-02-04T11:16:30;13.40;99.90
20481;DHT22;10399;50.754;3.366;2023-02-04T11:24:20;13.40;99.90
20481;DHT22;10399;50.754;3.366;2023-02-04T11:26:49;13.30;99.90
20481;DHT22;10399;50.754;3.366;2023-02-04T11:29:35;13.40;99.90
20481;DHT22;10399;50.754;3.366;2023-02-04T11:37:40;13.40;99.90
20481;DHT22;10399;50.754;3.366;2023-02-04T11:40:32;13.30;99.90
20481;DHT22;10399;50.754;3.366;2023-02-04T11:43:10;13.10;99.90
20481;DHT22;10399;50.754;3.366;2023-02-04T11:45:37;13.20;99.90
20481;DHT22;10399;50.754;3.366;2023-02-04T11:48:16;13.20;99.90
20481;DHT22;10399;50.754;3.366;2023-02-04T11:50:55;13.20;99.90
20481;DHT22;10399;50.754;3.366;2023-02-04T11:53:30;13.30;99.90
20481;DHT22;10399;50.754;3.366;2023-02-04T11:55:58;13.30;99.90
20481;DHT22;10399;50.754;3.366;2023-02-04T11:58:28;13.30;99.90
20481;DHT22;10399;50.754;3.366;2023-02-04T12:00:57;13.40;99.90
20481;DHT22;10399;50.754;3.366;2023-02-04T12:03:31;13.30;99.90
20481;DHT22;10399;50.754;3.366;2023-02-04T12:06:00;13.40;99.90
20481;DHT22;10399;50.754;3.366;2023-02-04T12:08:32;13.40;99.90
20481;DHT22;10399;50.754;3.366;2023-02-04T12:11:04;13.50;99.90
20481;DHT22;10399;50.754;3.366;2023-02-04T12:13:33;13.40;99.90
20481;DHT22;10399;50.754;3.366;2023-02-04T12:16:00;13.40;99.90
20481;DHT22;10399;50.754;3.366;2023-02-04T12:18:32;13.40;99.90
20481;DHT22;10399;50.754;3.366;2023-02-04T12:21:00;13.40;99.90
20481;DHT22;10399;50.754;3.366;2023-02-04T12:23:29;13.30;99.90
20481;DHT22;10399;50.754;3.366;2023-02-04T12:25:56;13.40;99.90
20481;DHT22;10399;50.754;3.366;2023-02-04T12:28:24;13.30;99.90
20481;DHT22;10399;50.754;3.366;2023-02-04T12:30:54;13.40;99.90
20481;DHT22;10399;50.754;3.366;2023-02-04T12:33:21;13.40;99.90
20481;DHT22;10399;50.754;3.366;2023-02-04T12:35:51;13.40;99.90
20481;DHT22;10399;50.754;3.366;2023-02-04T12:38:19;13.50;99.90
20481;DHT22;10399;50.754;3.366;2023-02-04T12:40:46;13.40;99.90
20481;DHT22;10399;50.754;3.366;2023-02-04T12:43:13;13.50;99.90
20481;DHT22;10399;50.754;3.366;2023-02-04T12:45:40;13.50;99.90
20481;DHT22;10399;50.754;3.366;2023-02-04T12:48:11;13.50;99.90
20481;DHT22;10399;50.754;3.366;2023-02-04T12:50:45;13.50;99.90
20481;DHT22;10399;50.754;3.366;2023-02-04T12:53:12;13.50;99.90
20481;DHT22;10399;50.754;3.366;2023-02-04T12:55:39;13.60;99.90
20481;DHT22;10399;50.754;3.366;2023-02-04T12:58:06;13.60;99.90
20481;DHT22;10399;50.754;3.366;2023-02-04T13:00:35;13.60;99.90
20481;DHT22;10399;50.754;3.366;2023-02-04T13:03:03;13.60;99.90
20481;DHT22;10399;50.754;3.366;2023-02-04T13:05:31;13.70;99.90
20481;DHT22;10399;50.754;3.366;2023-02-04T13:07:59;13.70;99.90
20481;DHT22;10399;50.754;3.366;2023-02-04T13:10:26;13.70;99.90
20481;DHT22;10399;50.754;3.366;2023-02-04T13:12:53;13.70;99.90
20481;DHT22;10399;50.754;3.366;2023-02-04T13:15:20;13.80;99.90
20481;DHT22;10399;50.754;3.366;2023-02-04T13:17:47;13.80;99.90
20481;DHT22;10399;50.754;3.366;2023-02-04T13:20:14;13.80;99.90
20481;DHT22;10399;50.754;3.366;2023-02-04T13:22:41;13.80;99.90
20481;DHT22;10399;50.754;3.366;2023-02-04T13:25:08;13.90;99.90
20481;DHT22;10399;50.754;3.366;2023-02-04T13:27:38;13.90;99.90
20481;DHT22;10399;50.754;3.366;2023-02-04T13:30:06;13.90;99.90
20481;DHT22;10399;50.754;3.366;2023-02-04T13:32:33;13.90;99.90
20481;DHT22;10399;50.754;3.366;2023-02-04T13:35:00;13.90;99.90
20481;DHT22;10399;50.754;3.366;2023-02-04T13:37:27;14.00;99.90
20481;DHT22;10399;50.754;3.366;2023-02-04T13:39:56;13.90;99.90
20481;DHT22;10399;50.754;3.366;2023-02-04T13:42:23;14.00;99.90
20481;DHT22;10399;50.754;3.366;2023-02-04T13:44:50;13.90;99.90
20481;DHT22;10399;50.754;3.366;2023-02-04T13:47:17;14.00;99.90
20481;DHT22;10399;50.754;3.366;2023-02-04T13:49:47;14.10;99.90
20481;DHT22;10399;50.754;3.366;2023-02-04T13:52:14;14.00;99.90
20481;DHT22;10399;50.754;3.366;2023-02-04T13:54:44;14.00;99.90
20481;DHT22;10399;50.754;3.366;2023-02-04T13:57:11;14.00;99.90
20481;DHT22;10399;50.754;3.366;2023-02-04T13:59:38;14.10;99.90
20481;DHT22;10399;50.754;3.366;2023-02-04T14:02:05;14.10;99.90
20481;DHT22;10399;50.754;3.366;2023-02-04T14:04:33;14.10;99.90
20481;DHT22;10399;50.754;3.366;2023-02-04T14:07:02;14.00;99.90
20481;DHT22;10399;50.754;3.366;2023-02-04T14:09:29;14.00;99.90
20481;DHT22;10399;50.754;3.366;2023-02-04T14:11:56;13.90;99.90
20481;DHT22;10399;50.754;3.366;2023-02-04T14:14:23;14.10;99.90
20481;DHT22;10399;50.754;3.366;2023-02-04T14:16:50;14.10;99.90
20481;DHT22;10399;50.754;3.366;2023-02-04T14:19:17;14.00;99.90
20481;DHT22;10399;50.754;3.366;2023-02-04T14:21:44;14.00;99.90
20481;DHT22;10399;50.754;3.366;2023-02-04T14:24:12;13.90;99.90
20481;DHT22;10399;50.754;3.366;2023-02-04T14:26:39;13.90;99.90
20481;DHT22;10399;50.754;3.366;2023-02-04T14:29:06;13.80;99.90
20481;DHT22;10399;50.754;3.366;2023-02-04T14:31:32;13.90;99.90
20481;DHT22;10399;50.754;3.366;2023-02-04T14:34:00;13.80;99.90
20481;DHT22;10399;50.754;3.366;2023-02-04T14:36:27;13.90;99.90
20481;DHT22;10399;50.754;3.366;2023-02-04T14:38:53;14.00;99.90
20481;DHT22;10399;50.754;3.366;2023-02-04T14:41:21;13.80;99.90
20481;DHT22;10399;50.754;3.366;2023-02-04T14:43:48;13.70;99.90
20481;DHT22;10399;50.754;3.366;2023-02-04T14:46:15;13.60;99.90
20481;DHT22;10399;50.754;3.366;2023-02-04T14:48:45;13.60;99.90
20481;DHT22;10399;50.754;3.366;2023-02-04T14:51:13;13.50;99.90
20481;DHT22;10399;50.754;3.366;2023-02-04T14:53:40;13.80;99.90
20481;DHT22;10399;50.754;3.366;2023-02-04T14:56:13;13.50;99.90
20481;DHT22;10399;50.754;3.366;2023-02-04T14:58:40;13.10;99.90
20481;DHT22;10399;50.754;3.366;2023-02-04T15:01:07;13.30;99.90
20481;DHT22;10399;50.754;3.366;2023-02-04T15:03:34;13.40;99.90
20481;DHT22;10399;50.754;3.366;2023-02-04T15:06:02;13.40;99.90
20481;DHT22;10399;50.754;3.366;2023-02-04T15:08:31;13.30;99.90
20481;DHT22;10399;50.754;3.366;2023-02-04T15:10:58;13.30;99.90
20481;DHT22;10399;50.754;3.366;2023-02-04T15:13:26;13.40;99.90
20481;DHT22;10399;50.754;3.366;2023-02-04T15:15:54;13.30;99.90
20481;DHT22;10399;50.754;3.366;2023-02-04T15:18:25;13.20;99.90
20481;DHT22;10399;50.754;3.366;2023-02-04T15:20:51;13.00;99.90
20481;DHT22;10399;50.754;3.366;2023-02-04T15:23:18;13.00;99.90
20481;DHT22;10399;50.754;3.366;2023-02-04T15:25:45;13.00;99.90
20481;DHT22;10399;50.754;3.366;2023-02-04T15:28:13;13.00;99.90
20481;DHT22;10399;50.754;3.366;2023-02-04T15:30:40;13.00;99.90
20481;DHT22;10399;50.754;3.366;2023-02-04T15:33:07;13.00;99.90
20481;DHT22;10399;50.754;3.366;2023-02-04T15:35:34;12.90;99.90
20481;DHT22;10399;50.754;3.366;2023-02-04T15:38:01;12.90;99.90
20481;DHT22;10399;50.754;3.366;2023-02-04T15:40:28;12.60;99.90
20481;DHT22;10399;50.754;3.366;2023-02-04T15:42:56;12.60;99.90
20481;DHT22;10399;50.754;3.366;2023-02-04T15:45:23;12.80;99.90
20481;DHT22;10399;50.754;3.366;2023-02-04T15:47:50;13.00;99.90
20481;DHT22;10399;50.754;3.366;2023-02-04T15:50:18;12.80;99.90
20481;DHT22;10399;50.754;3.366;2023-02-04T15:52:45;12.70;99.90
20481;DHT22;10399;50.754;3.366;2023-02-04T15:55:12;12.80;99.90
20481;DHT22;10399;50.754;3.366;2023-02-04T15:57:39;12.70;99.90
20481;DHT22;10399;50.754;3.366;2023-02-04T16:00:07;12.70;99.90